Time;durP1;ratioP1;P1;durP2;ratioP2;P2;SDS_P1;SDS_P2;PMS_P1;PMS_P2;Temp;Humidity;BMP_temperature;BMP_pressure;BME280_temperature;BME280_humidity;BME280_pressure;Samples;Min_cycle;Max_cycle;Signal;HPM_P1;HPM_P2
2022/09/07 00:00:34;;;;;;;7.75;2.50;;;19.00;99.90;;;;;;5030208;28;20057;-75
2022/09/07 00:03:00;;;;;;;5.18;2.17;;;19.00;99.90;;;;;;5043958;28;20139;-74
2022/09/07 00:05:27;;;;;;;4.40;2.03;;;18.90;99.90;;;;;;5028124;28;20505;-74
2022/09/07 00:07:53;;;;;;;6.18;2.63;;;18.90;99.90;;;;;;5025235;28;20022;-75
2022/09/07 00:10:18;;;;;;;7.93;2.28;;;18.80;99.90;;;;;;5029937;28;20072;-74
2022/09/07 00:12:44;;;;;;;6.97;2.58;;;18.80;99.90;;;;;;5030302;28;20442;-75
2022/09/07 00:15:11;;;;;;;4.80;2.42;;;18.70;99.90;;;;;;5029944;28;20021;-75
2022/09/07 00:17:37;;;;;;;5.78;2.58;;;18.70;99.90;;;;;;5029903;28;20025;-74
2022/09/07 00:20:04;;;;;;;3.95;2.00;;;18.60;99.90;;;;;;5029987;28;20136;-75
2022/09/07 00:22:30;;;;;;;6.57;2.55;;;18.60;99.90;;;;;;5029673;28;20017;-75
2022/09/07 00:24:56;;;;;;;5.13;2.20;;;18.70;99.90;;;;;;5029543;28;20500;-75
2022/09/07 00:27:22;;;;;;;4.20;2.30;;;18.60;99.90;;;;;;5029786;28;20028;-75
2022/09/07 00:29:47;;;;;;;5.13;2.28;;;18.60;99.90;;;;;;5027906;28;20070;-74
2022/09/07 00:32:13;;;;;;;3.67;2.13;;;18.60;99.90;;;;;;5030073;28;20520;-74
2022/09/07 00:34:39;;;;;;;3.90;2.30;;;18.60;99.90;;;;;;5029415;28;20036;-75
2022/09/07 00:37:04;;;;;;;4.82;2.30;;;18.60;99.90;;;;;;5029446;28;20474;-75
2022/09/07 00:39:30;;;;;;;6.30;2.50;;;18.50;99.90;;;;;;5029247;28;20116;-74
2022/09/07 00:41:55;;;;;;;4.57;2.40;;;18.50;99.90;;;;;;5029952;28;20026;-74
2022/09/07 00:44:43;;;;;;;3.92;2.20;;;18.50;99.90;;;;;;5029177;28;20025;-75
2022/09/07 00:47:23;;;;;;;4.25;2.20;;;18.50;99.90;;;;;;5029902;28;20072;-74
2022/09/07 00:49:54;;;;;;;4.45;2.25;;;18.50;99.90;;;;;;5025752;28;20108;-74
2022/09/07 00:52:21;;;;;;;3.72;2.00;;;18.50;99.90;;;;;;5029344;28;20030;-74
2022/09/07 00:54:52;;;;;;;4.88;1.70;;;18.50;99.90;;;;;;5029218;28;20048;-74
2022/09/07 00:57:19;;;;;;;5.88;2.35;;;18.50;99.90;;;;;;5044410;28;20428;-74
2022/09/07 00:59:50;;;;;;;3.90;2.30;;;18.50;99.90;;;;;;5035266;28;20032;-74
2022/09/07 01:02:16;;;;;;;5.22;2.30;;;18.50;99.90;;;;;;5033333;28;20060;-74
2022/09/07 01:04:45;;;;;;;4.38;2.17;;;18.50;99.90;;;;;;5039882;28;20083;-74
2022/09/07 01:07:10;;;;;;;5.50;2.42;;;18.50;99.90;;;;;;5043046;28;20037;-74
2022/09/07 01:09:37;;;;;;;4.93;2.67;;;18.50;99.90;;;;;;5037546;28;20029;-74
2022/09/07 01:12:03;;;;;;;4.40;2.38;;;18.50;99.90;;;;;;5033473;28;20102;-75
2022/09/07 01:14:33;;;;;;;6.80;3.08;;;18.50;99.90;;;;;;5033436;28;20120;-74
2022/09/07 01:17:01;;;;;;;5.38;2.90;;;18.60;99.90;;;;;;5033249;28;20053;-74
2022/09/07 01:20:04;;;;;;;5.75;3.15;;;18.60;99.90;;;;;;5033166;28;20096;-74
2022/09/07 01:23:02;;;;;;;6.32;2.90;;;18.60;99.90;;;;;;5019393;28;20549;-74
2022/09/07 01:25:49;;;;;;;6.50;2.90;;;18.60;99.90;;;;;;5027946;28;20384;-74
2022/09/07 01:28:20;;;;;;;4.88;2.78;;;18.60;99.90;;;;;;5032604;28;20057;-75
2022/09/07 01:31:00;;;;;;;5.20;3.20;;;18.60;99.90;;;;;;5032866;28;20053;-75
2022/09/07 01:33:50;;;;;;;6.50;2.80;;;18.60;99.90;;;;;;5033000;28;20147;-74
2022/09/07 01:36:33;;;;;;;7.13;3.05;;;18.60;99.90;;;;;;5020738;28;20037;-74
2022/09/07 01:39:01;;;;;;;6.47;3.03;;;18.60;99.90;;;;;;5036810;28;20025;-75
2022/09/07 01:41:52;;;;;;;5.07;2.90;;;18.60;99.90;;;;;;5032390;28;20017;-75
2022/09/07 01:44:34;;;;;;;6.30;3.30;;;18.60;99.90;;;;;;5032697;28;20010;-75
2022/09/07 01:47:04;;;;;;;3.75;3.00;;;18.60;99.90;;;;;;5044389;28;20056;-74
2022/09/07 01:49:42;;;;;;;6.70;3.03;;;18.60;99.90;;;;;;5033838;28;20033;-75
2022/09/07 01:52:27;;;;;;;4.18;2.78;;;18.60;99.90;;;;;;5033124;28;20112;-74
2022/09/07 01:55:22;;;;;;;6.30;3.30;;;18.60;99.90;;;;;;5036599;28;20488;-74
2022/09/07 01:58:19;;;;;;;6.70;3.40;;;18.60;99.90;;;;;;5042193;28;20120;-75
2022/09/07 02:01:00;;;;;;;9.75;3.58;;;18.60;99.90;;;;;;5032620;28;20048;-74
2022/09/07 02:03:50;;;;;;;6.63;3.42;;;18.60;99.90;;;;;;5032676;28;20044;-74
2022/09/07 02:06:38;;;;;;;6.38;3.60;;;18.60;99.90;;;;;;5032069;28;20040;-75
2022/09/07 02:09:18;;;;;;;5.72;3.20;;;18.60;99.90;;;;;;5039098;28;20037;-74
2022/09/07 02:11:46;;;;;;;7.30;3.95;;;18.50;99.90;;;;;;5032315;28;20029;-75
2022/09/07 02:14:30;;;;;;;7.68;3.47;;;18.50;99.90;;;;;;5032241;28;20030;-75
2022/09/07 02:17:11;;;;;;;4.63;3.13;;;18.60;99.90;;;;;;5032243;28;20091;-74
2022/09/07 02:20:02;;;;;;;5.75;3.53;;;18.60;99.90;;;;;;5021340;28;20441;-75
2022/09/07 02:22:31;;;;;;;4.80;3.20;;;18.60;99.90;;;;;;5030835;28;20029;-74
2022/09/07 02:25:00;;;;;;;5.88;3.40;;;18.50;99.90;;;;;;5033127;28;20025;-75
2022/09/07 02:27:47;;;;;;;6.60;3.67;;;18.60;99.90;;;;;;5034209;28;20022;-74
2022/09/07 02:30:13;;;;;;;9.68;3.58;;;18.60;99.90;;;;;;5031897;28;20036;-75
2022/09/07 02:32:39;;;;;;;7.85;3.85;;;18.60;99.90;;;;;;5032114;28;20032;-75
2022/09/07 02:35:06;;;;;;;7.35;3.83;;;18.50;99.90;;;;;;5035195;28;20025;-74
2022/09/07 02:37:33;;;;;;;6.10;3.60;;;18.50;99.90;;;;;;5042089;28;20033;-74
2022/09/07 02:39:59;;;;;;;4.68;3.38;;;18.50;99.90;;;;;;5031463;28;20029;-74
2022/09/07 02:42:29;;;;;;;6.72;3.10;;;18.50;99.90;;;;;;5039606;28;20017;-74
2022/09/07 02:44:54;;;;;;;6.60;3.47;;;18.50;99.90;;;;;;5034754;28;20029;-74
2022/09/07 02:47:54;;;;;;;7.90;3.80;;;18.40;99.90;;;;;;5038172;28;20032;-74
2022/09/07 02:50:28;;;;;;;7.35;3.35;;;18.50;99.90;;;;;;5035206;28;20029;-74
2022/09/07 02:53:28;;;;;;;5.45;3.42;;;18.40;99.90;;;;;;5031775;28;20022;-74
2022/09/07 02:56:09;;;;;;;5.50;3.65;;;18.40;99.90;;;;;;5018539;28;20029;-74
2022/09/07 02:59:05;;;;;;;9.63;4.18;;;18.40;99.90;;;;;;5045391;28;20028;-74
2022/09/07 03:01:34;;;;;;;;;;;18.40;99.90;;;;;;5031799;28;20120;-75
2022/09/07 03:04:05;;;;;;;10.75;3.90;;;18.40;99.90;;;;;;5037791;28;20257;-74
2022/09/07 03:06:37;;;;;;;8.82;4.10;;;18.30;99.90;;;;;;5031538;28;20039;-74
2022/09/07 03:09:13;;;;;;;6.78;3.50;;;18.30;99.90;;;;;;5030931;28;20060;-75
2022/09/07 03:11:39;;;;;;;5.00;3.72;;;18.30;99.90;;;;;;5040010;28;20119;-74
2022/09/07 03:14:15;;;;;;;7.60;3.72;;;18.30;99.90;;;;;;5031562;28;20128;-74
2022/09/07 03:16:41;;;;;;;7.68;4.07;;;18.30;99.90;;;;;;5030718;28;20414;-76
2022/09/07 03:19:06;;;;;;;6.43;3.50;;;18.30;99.90;;;;;;5030059;28;20122;-74
2022/09/07 03:21:32;;;;;;;8.27;3.72;;;18.30;99.90;;;;;;5031147;28;20049;-75
2022/09/07 03:23:58;;;;;;;8.93;3.72;;;18.20;99.90;;;;;;5030492;28;20105;-74
2022/09/07 03:26:24;;;;;;;8.00;3.90;;;18.20;99.90;;;;;;5031581;28;20025;-74
2022/09/07 03:28:50;;;;;;;7.55;3.75;;;18.20;99.90;;;;;;5030130;28;20429;-74
2022/09/07 03:31:16;;;;;;;8.07;3.80;;;18.10;99.90;;;;;;5030655;28;20037;-75
2022/09/07 03:33:42;;;;;;;6.15;4.00;;;18.10;99.90;;;;;;5030416;28;20577;-74
2022/09/07 03:36:08;;;;;;;7.18;3.75;;;18.10;99.90;;;;;;5030530;28;20100;-75
2022/09/07 03:38:33;;;;;;;7.05;4.07;;;18.10;99.90;;;;;;5030380;28;20029;-74
2022/09/07 03:41:04;;;;;;;8.43;3.83;;;18.00;99.90;;;;;;5043293;28;20025;-74
2022/09/07 03:43:31;;;;;;;6.32;3.97;;;18.00;99.90;;;;;;5046107;28;20043;-74
2022/09/07 03:45:59;;;;;;;5.53;4.10;;;18.00;99.90;;;;;;5030860;28;20076;-75
2022/09/07 03:48:25;;;;;;;5.60;3.95;;;18.00;99.90;;;;;;5030141;28;20032;-74
2022/09/07 03:50:59;;;;;;;7.97;4.28;;;17.90;99.90;;;;;;5030593;28;20025;-74
2022/09/07 03:53:25;;;;;;;6.25;3.97;;;17.90;99.90;;;;;;5028383;28;20065;-75
2022/09/07 03:56:06;;;;;;;7.47;4.70;;;17.90;99.90;;;;;;5039311;28;20460;-75
2022/09/07 03:58:32;;;;;;;5.28;4.00;;;17.90;99.90;;;;;;5035802;28;20148;-74
2022/09/07 04:00:59;;;;;;;6.50;4.07;;;17.80;99.90;;;;;;5041264;28;20095;-74
2022/09/07 04:03:25;;;;;;;5.65;4.00;;;17.80;99.90;;;;;;5030956;28;20385;-74
2022/09/07 04:05:51;;;;;;;6.57;4.50;;;17.70;99.90;;;;;;5043611;28;20092;-75
2022/09/07 04:08:17;;;;;;;5.65;4.30;;;17.70;99.90;;;;;;5029514;28;20469;-74
2022/09/07 04:10:42;;;;;;;5.85;4.13;;;17.70;99.90;;;;;;5043981;28;20025;-75
2022/09/07 04:13:08;;;;;;;5.93;3.97;;;17.70;99.90;;;;;;5030585;28;20072;-74
2022/09/07 04:15:34;;;;;;;7.22;4.47;;;17.60;99.90;;;;;;5030054;28;20032;-75
2022/09/07 04:18:00;;;;;;;6.35;4.25;;;17.60;99.90;;;;;;5029600;28;20111;-74
2022/09/07 04:20:26;;;;;;;8.45;3.97;;;17.60;99.90;;;;;;5030062;28;20429;-74
2022/09/07 04:22:52;;;;;;;4.93;3.45;;;17.50;99.90;;;;;;5030504;28;20033;-74
2022/09/07 04:25:18;;;;;;;7.15;3.58;;;17.50;99.90;;;;;;5043835;28;20501;-74
2022/09/07 04:27:44;;;;;;;4.88;3.60;;;17.50;99.90;;;;;;5037197;28;20033;-74
2022/09/07 04:30:10;;;;;;;4.40;3.40;;;17.50;99.90;;;;;;5036479;28;20033;-74
2022/09/07 04:32:36;;;;;;;4.82;3.38;;;17.40;99.90;;;;;;5030000;28;20075;-74
2022/09/07 04:35:02;;;;;;;7.60;3.72;;;17.50;99.90;;;;;;5033825;28;20392;-74
2022/09/07 04:37:27;;;;;;;5.55;3.40;;;17.50;99.90;;;;;;5033601;28;20025;-74
2022/09/07 04:39:53;;;;;;;8.30;3.22;;;17.40;99.90;;;;;;5032868;28;20024;-74
2022/09/07 04:42:19;;;;;;;6.13;3.60;;;17.40;99.90;;;;;;5040717;28;20075;-74
2022/09/07 04:44:47;;;;;;;7.85;3.97;;;17.40;99.90;;;;;;5043433;28;20483;-74
2022/09/07 04:47:13;;;;;;;5.40;3.90;;;17.40;99.90;;;;;;5029003;28;20021;-73
2022/09/07 04:49:38;;;;;;;5.10;3.70;;;17.40;99.90;;;;;;5030666;28;20029;-73
2022/09/07 04:52:04;;;;;;;8.18;4.07;;;17.40;99.90;;;;;;5029536;28;20025;-73
2022/09/07 04:54:29;;;;;;;7.60;4.28;;;17.40;99.90;;;;;;5034578;28;20026;-74
2022/09/07 04:56:55;;;;;;;6.03;4.30;;;17.40;99.90;;;;;;5031801;28;20021;-73
2022/09/07 04:59:20;;;;;;;6.68;4.30;;;17.30;99.90;;;;;;5032084;28;20028;-74
2022/09/07 05:01:46;;;;;;;7.90;4.78;;;17.30;99.90;;;;;;5027989;28;20028;-73
2022/09/07 05:04:12;;;;;;;11.68;5.00;;;17.30;99.90;;;;;;5029056;28;20103;-74
2022/09/07 05:06:37;;;;;;;8.52;5.22;;;17.30;99.90;;;;;;5030589;28;20029;-73
2022/09/07 05:09:03;;;;;;;7.55;5.50;;;17.30;99.90;;;;;;5029357;28;20030;-73
2022/09/07 05:11:29;;;;;;;8.70;5.95;;;17.30;99.90;;;;;;5028498;28;20022;-74
2022/09/07 05:13:56;;;;;;;8.63;5.50;;;17.30;99.90;;;;;;5031826;28;20056;-74
2022/09/07 05:16:25;;;;;;;8.35;5.15;;;17.30;99.90;;;;;;5031249;28;20052;-76
2022/09/07 05:18:52;;;;;;;8.55;5.50;;;17.30;99.90;;;;;;5030825;28;20018;-77
2022/09/07 05:21:26;;;;;;;7.82;6.15;;;17.30;99.90;;;;;;5030768;28;20057;-77
2022/09/07 05:23:53;;;;;;;13.13;7.95;;;17.30;99.90;;;;;;5040367;28;20033;-77
2022/09/07 05:26:21;;;;;;;13.98;7.95;;;17.20;99.90;;;;;;5030826;28;20026;-77
2022/09/07 05:28:47;;;;;;;11.98;8.70;;;17.30;99.90;;;;;;5030558;28;20022;-77
2022/09/07 05:31:15;;;;;;;12.68;9.65;;;17.20;99.90;;;;;;5029026;28;20030;-77
2022/09/07 05:33:45;;;;;;;14.25;9.88;;;17.20;99.90;;;;;;5037147;28;20014;-77
2022/09/07 05:36:11;;;;;;;13.43;9.65;;;17.20;99.90;;;;;;5029755;28;20025;-77
2022/09/07 05:38:37;;;;;;;15.10;9.80;;;17.20;99.90;;;;;;5029859;28;20084;-77
2022/09/07 05:41:12;;;;;;;14.05;9.60;;;17.20;99.90;;;;;;5034969;28;20049;-77
2022/09/07 05:43:38;;;;;;;14.65;10.13;;;17.20;99.90;;;;;;5040141;28;20017;-77
2022/09/07 05:46:03;;;;;;;15.50;10.00;;;17.20;99.90;;;;;;5045243;28;20049;-77
2022/09/07 05:48:29;;;;;;;14.85;9.65;;;17.30;99.90;;;;;;5042546;28;20496;-77
2022/09/07 05:50:54;;;;;;;14.50;9.73;;;17.20;99.90;;;;;;5045826;28;20503;-77
2022/09/07 05:53:20;;;;;;;14.20;9.98;;;17.20;99.90;;;;;;5049873;28;20481;-77
2022/09/07 05:55:48;;;;;;;16.15;10.55;;;17.20;99.90;;;;;;5045061;28;20048;-77
2022/09/07 05:58:14;;;;;;;15.05;9.70;;;17.20;99.90;;;;;;5033569;28;20509;-76
2022/09/07 06:00:40;;;;;;;19.52;10.60;;;17.20;99.90;;;;;;5042114;28;20029;-77
2022/09/07 06:03:06;;;;;;;19.23;10.35;;;17.20;99.90;;;;;;5044468;28;20021;-77
2022/09/07 06:05:31;;;;;;;16.30;10.13;;;17.30;99.90;;;;;;5045814;28;20503;-77
2022/09/07 06:07:57;;;;;;;17.17;11.05;;;17.30;99.90;;;;;;5043704;28;20036;-76
2022/09/07 06:10:22;;;;;;;15.90;11.43;;;17.30;99.90;;;;;;5032559;28;20036;-75
2022/09/07 06:12:48;;;;;;;18.50;11.32;;;17.30;99.90;;;;;;5045287;28;20580;-76
2022/09/07 06:15:14;;;;;;;19.25;11.23;;;17.30;99.90;;;;;;5049451;28;20017;-76
2022/09/07 06:17:39;;;;;;;16.00;11.00;;;17.40;99.90;;;;;;5046814;28;20041;-76
2022/09/07 06:20:06;;;;;;;21.80;11.70;;;17.40;99.90;;;;;;5050276;28;20096;-77
2022/09/07 06:22:36;;;;;;;17.35;11.50;;;17.40;99.90;;;;;;5049839;28;20029;-77
2022/09/07 06:25:02;;;;;;;17.30;12.23;;;17.40;99.90;;;;;;5045247;28;20040;-75
2022/09/07 06:27:28;;;;;;;15.68;11.80;;;17.40;99.90;;;;;;5040470;28;20032;-76
2022/09/07 06:29:54;;;;;;;16.33;12.07;;;17.40;99.90;;;;;;5047254;28;20029;-77
2022/09/07 06:32:20;;;;;;;16.77;12.38;;;17.50;99.90;;;;;;5046145;28;20033;-76
2022/09/07 06:34:45;;;;;;;16.95;12.55;;;17.50;99.90;;;;;;5047525;28;20041;-76
2022/09/07 06:37:11;;;;;;;19.25;12.90;;;17.50;99.90;;;;;;5050796;28;20021;-77
2022/09/07 06:39:37;;;;;;;20.25;13.63;;;17.60;99.90;;;;;;5048235;28;20037;-76
2022/09/07 06:42:03;;;;;;;20.40;14.77;;;17.70;99.90;;;;;;5040803;28;20034;-76
2022/09/07 06:44:29;;;;;;;23.27;16.05;;;17.70;99.90;;;;;;5044676;28;20389;-76
2022/09/07 06:46:55;;;;;;;24.88;16.30;;;17.70;99.90;;;;;;5045936;28;20128;-76
2022/09/07 06:49:22;;;;;;;22.77;16.70;;;17.80;99.90;;;;;;5043759;28;20024;-76
2022/09/07 06:51:48;;;;;;;24.10;16.35;;;17.80;99.90;;;;;;5044416;28;20041;-76
2022/09/07 06:54:14;;;;;;;22.00;16.80;;;17.90;99.90;;;;;;5041000;28;20048;-76
2022/09/07 06:56:39;;;;;;;22.27;15.50;;;17.90;99.90;;;;;;5046278;28;20021;-76
2022/09/07 06:59:05;;;;;;;22.50;16.58;;;17.90;99.90;;;;;;5041540;28;20064;-76
2022/09/07 07:01:32;;;;;;;23.50;17.13;;;17.90;99.90;;;;;;5042905;28;20087;-75
2022/09/07 07:03:59;;;;;;;22.45;16.17;;;17.90;99.90;;;;;;5038326;28;20024;-75
2022/09/07 07:06:36;;;;;;;21.48;15.32;;;17.90;99.90;;;;;;5036844;28;20028;-75
2022/09/07 07:09:03;;;;;;;20.67;14.88;;;17.90;99.90;;;;;;5033572;28;20060;-75
2022/09/07 07:11:29;;;;;;;18.23;14.40;;;17.90;99.90;;;;;;5039609;28;20044;-75
2022/09/07 07:13:56;;;;;;;18.88;14.15;;;17.90;99.90;;;;;;5038366;28;20040;-76
2022/09/07 07:16:23;;;;;;;18.60;13.98;;;17.90;99.90;;;;;;5035076;28;20021;-76
2022/09/07 07:18:51;;;;;;;21.45;15.63;;;18.00;99.90;;;;;;5033272;28;20496;-76
2022/09/07 07:21:17;;;;;;;22.75;16.40;;;18.00;99.90;;;;;;5030981;28;20014;-76
2022/09/07 07:23:43;;;;;;;21.80;17.35;;;17.90;99.90;;;;;;5039455;28;20029;-76
2022/09/07 07:26:14;;;;;;;21.95;18.23;;;17.90;99.90;;;;;;5030106;28;20115;-76
2022/09/07 07:28:48;;;;;;;21.98;18.50;;;17.90;99.90;;;;;;5031283;28;20033;-76
2022/09/07 07:31:16;;;;;;;22.77;18.23;;;18.00;99.90;;;;;;5027742;28;20026;-76
2022/09/07 07:36:45;;;;;;;23.38;17.27;;;17.90;99.90;;;;;;5050996;28;20500;-75
2022/09/07 07:39:10;;;;;;;20.75;17.08;;;17.90;99.90;;;;;;5050711;28;20029;-76
2022/09/07 07:41:36;;;;;;;20.02;15.32;;;17.90;99.90;;;;;;5050944;28;20060;-76
2022/09/07 07:44:02;;;;;;;20.33;15.07;;;18.00;99.90;;;;;;5050388;28;20037;-76
2022/09/07 07:46:29;;;;;;;17.02;14.10;;;18.00;99.90;;;;;;5050642;28;20056;-75
2022/09/07 07:48:54;;;;;;;18.60;13.60;;;18.10;99.90;;;;;;5050829;28;20052;-75
2022/09/07 07:51:20;;;;;;;16.27;12.35;;;18.10;99.90;;;;;;5050863;28;20105;-76
2022/09/07 07:53:47;;;;;;;18.13;11.50;;;18.20;99.90;;;;;;5050769;28;20083;-76
2022/09/07 07:56:13;;;;;;;17.08;11.80;;;18.20;99.90;;;;;;5050935;28;20033;-75
2022/09/07 07:58:42;;;;;;;16.08;11.88;;;18.30;99.90;;;;;;5050501;28;20458;-76
2022/09/07 08:01:13;;;;;;;15.07;11.60;;;18.40;99.90;;;;;;5050799;28;20064;-76
2022/09/07 08:03:42;;;;;;;15.85;11.40;;;18.50;99.90;;;;;;5047882;28;20397;-76
2022/09/07 08:06:16;;;;;;;16.45;11.70;;;18.50;99.90;;;;;;5039579;28;20508;-76
2022/09/07 08:08:44;;;;;;;16.95;12.40;;;18.60;99.90;;;;;;5050400;28;20074;-76
2022/09/07 08:11:12;;;;;;;14.25;11.32;;;18.70;99.90;;;;;;5050479;28;20378;-76
2022/09/07 08:13:41;;;;;;;16.10;11.40;;;18.80;99.90;;;;;;5050396;28;20362;-76
2022/09/07 08:16:07;;;;;;;12.27;10.77;;;18.90;99.90;;;;;;5050452;28;20249;-76
2022/09/07 08:18:33;;;;;;;16.90;11.82;;;19.00;99.90;;;;;;5050600;28;20888;-76
2022/09/07 08:21:01;;;;;;;18.42;10.98;;;19.10;99.90;;;;;;5050224;28;20059;-76
2022/09/07 08:23:27;;;;;;;15.50;10.88;;;19.20;99.90;;;;;;5050452;28;20024;-76
2022/09/07 08:25:54;;;;;;;15.50;10.63;;;19.40;99.90;;;;;;5046178;28;20029;-76
2022/09/07 08:28:22;;;;;;;17.02;11.20;;;19.50;99.90;;;;;;5040273;28;20024;-74
2022/09/07 08:30:48;;;;;;;13.18;10.10;;;19.70;99.90;;;;;;5043151;28;20032;-75
2022/09/07 08:33:13;;;;;;;15.00;9.98;;;19.80;99.90;;;;;;5030449;28;20024;-75
2022/09/07 08:35:39;;;;;;;16.95;9.48;;;19.90;99.90;;;;;;5030218;28;20021;-75
2022/09/07 08:38:05;;;;;;;13.52;9.35;;;20.00;99.90;;;;;;5029598;28;20381;-76
2022/09/07 08:40:35;;;;;;;11.52;8.90;;;20.20;99.90;;;;;;5029985;28;20422;-76
2022/09/07 08:43:34;;;;;;;11.20;8.85;;;20.30;99.90;;;;;;5030345;28;20033;-76
2022/09/07 08:46:28;;;;;;;11.60;8.00;;;20.50;99.90;;;;;;5030362;28;20046;-76
2022/09/07 08:48:57;;;;;;;12.50;8.13;;;20.60;99.90;;;;;;5025572;28;20018;-76
2022/09/07 08:51:41;;;;;;;9.60;6.93;;;20.70;99.90;;;;;;5029997;28;20083;-76
2022/09/07 08:54:11;;;;;;;7.90;5.28;;;20.90;99.90;;;;;;5042106;28;20033;-75
2022/09/07 08:56:41;;;;;;;9.15;5.30;;;21.00;99.90;;;;;;5039666;28;20484;-76
2022/09/07 08:59:22;;;;;;;8.75;4.75;;;21.10;99.90;;;;;;5030279;28;20506;-76
2022/09/07 09:01:48;;;;;;;9.52;5.00;;;21.10;99.90;;;;;;5030006;28;20025;-76
2022/09/07 09:04:19;;;;;;;11.13;5.38;;;21.30;99.90;;;;;;5030004;28;20033;-76
2022/09/07 09:06:51;;;;;;;12.02;4.55;;;21.40;99.90;;;;;;5029917;28;20437;-76
2022/09/07 09:09:22;;;;;;;9.73;3.95;;;21.50;99.90;;;;;;5029405;28;20014;-76
2022/09/07 09:11:56;;;;;;;9.73;3.45;;;21.60;99.90;;;;;;5030162;28;20025;-76
2022/09/07 09:14:46;;;;;;;12.45;3.95;;;21.70;99.90;;;;;;5029978;28;20029;-76
2022/09/07 09:17:28;;;;;;;10.73;3.90;;;21.70;99.90;;;;;;5031834;28;20029;-76
2022/09/07 09:20:27;;;;;;;7.47;3.60;;;21.70;99.90;;;;;;5038255;28;20025;-76
2022/09/07 09:23:13;;;;;;;5.90;2.65;;;21.70;99.90;;;;;;5016977;28;20068;-76
2022/09/07 09:25:43;;;;;;;8.50;2.70;;;21.70;99.90;;;;;;5033606;28;20040;-76
2022/09/07 09:28:11;;;;;;;11.55;3.13;;;21.80;99.90;;;;;;5033838;28;20497;-76
2022/09/07 09:30:37;;;;;;;11.82;3.17;;;21.90;99.90;;;;;;5033210;28;20394;-76
2022/09/07 09:33:21;;;;;;;7.15;2.60;;;22.00;99.90;;;;;;5050353;28;20021;-76
2022/09/07 09:35:49;;;;;;;9.02;2.42;;;22.10;99.90;;;;;;5053497;28;20412;-76
2022/09/07 09:38:29;;;;;;;10.23;2.70;;;22.30;99.90;;;;;;5053369;28;20016;-76
2022/09/07 09:40:58;;;;;;;8.15;2.55;;;22.50;99.90;;;;;;5053224;28;20178;-76
2022/09/07 09:43:26;;;;;;;4.57;2.38;;;22.60;99.90;;;;;;5053281;28;20032;-76
2022/09/07 09:45:55;;;;;;;8.75;2.53;;;22.70;99.90;;;;;;5042767;28;20188;-76
2022/09/07 09:48:33;;;;;;;11.75;2.60;;;22.70;99.90;;;;;;5050240;28;20036;-76
2022/09/07 09:51:00;;;;;;;10.73;2.20;;;22.60;99.90;;;;;;5053077;28;20131;-76
2022/09/07 09:53:51;;;;;;;8.00;2.70;;;22.60;99.90;;;;;;5053094;28;20021;-76
2022/09/07 09:56:17;;;;;;;8.02;2.60;;;22.60;99.90;;;;;;5045194;28;20033;-76
2022/09/07 09:58:46;;;;;;;8.40;2.88;;;22.60;99.90;;;;;;5053068;28;20159;-76
2022/09/07 10:01:33;;;;;;;9.77;2.75;;;22.60;99.90;;;;;;5053051;28;20039;-76
2022/09/07 10:04:29;;;;;;;9.02;2.75;;;22.70;99.90;;;;;;5052866;28;20359;-76
2022/09/07 10:06:56;;;;;;;;;;;22.80;99.90;;;;;;5051192;28;20033;-76
2022/09/07 10:09:40;;;;;;;13.32;2.10;;;22.80;99.90;;;;;;5040884;28;20043;-76
2022/09/07 10:12:07;;;;;;;9.70;2.35;;;22.90;99.90;;;;;;5052573;28;20114;-75
2022/09/07 10:14:35;;;;;;;8.57;2.10;;;23.00;99.90;;;;;;5053042;28;20017;-76
2022/09/07 10:17:11;;;;;;;9.00;2.40;;;23.00;99.90;;;;;;5052862;28;20025;-76
2022/09/07 10:19:39;;;;;;;11.10;3.10;;;23.20;99.90;;;;;;5052805;28;20029;-76
2022/09/07 10:22:21;;;;;;;8.73;2.40;;;23.20;99.90;;;;;;5052608;28;20036;-75
2022/09/07 10:24:46;;;;;;;7.47;2.15;;;23.20;99.90;;;;;;5052498;28;20013;-75
2022/09/07 10:27:19;;;;;;;11.43;2.42;;;23.30;99.90;;;;;;5052732;28;20093;-76
2022/09/07 10:29:44;;;;;;;10.20;2.58;;;23.50;99.90;;;;;;5048513;28;20024;-75
2022/09/07 10:32:19;;;;;;;10.15;2.28;;;23.60;99.90;;;;;;5041966;28;20393;-76
2022/09/07 10:34:59;;;;;;;9.10;3.10;;;23.60;99.90;;;;;;5052887;28;20524;-76
2022/09/07 10:37:54;;;;;;;11.52;2.45;;;23.50;99.90;;;;;;5052592;28;20052;-76
2022/09/07 10:40:30;;;;;;;9.70;2.47;;;23.30;99.90;;;;;;5042729;28;20049;-76
2022/09/07 10:43:22;;;;;;;11.75;3.35;;;23.10;99.90;;;;;;5047181;28;20053;-76
2022/09/07 10:46:17;;;;;;;9.23;3.25;;;23.00;99.90;;;;;;5052068;28;20045;-76
2022/09/07 10:48:54;;;;;;;12.52;3.13;;;23.10;99.90;;;;;;5044894;28;20020;-77
2022/09/07 10:51:36;;;;;;;8.95;2.80;;;23.20;99.90;;;;;;5051060;28;20029;-77
2022/09/07 10:54:13;;;;;;;9.15;3.25;;;23.30;99.90;;;;;;5051991;28;20021;-77
2022/09/07 10:57:11;;;;;;;9.85;3.15;;;23.20;99.90;;;;;;5051969;28;20025;-77
2022/09/07 10:59:48;;;;;;;14.23;3.03;;;23.30;99.90;;;;;;5052101;28;20523;-75
2022/09/07 11:02:31;;;;;;;12.15;3.25;;;23.40;99.90;;;;;;5046531;28;20366;-75
2022/09/07 11:05:31;;;;;;;9.23;3.22;;;23.60;99.90;;;;;;5038849;28;20022;-75
2022/09/07 11:08:14;;;;;;;7.70;2.92;;;23.80;99.90;;;;;;5025276;28;20022;-75
2022/09/07 11:11:10;;;;;;;8.02;3.10;;;24.00;99.90;;;;;;5039651;28;20101;-74
2022/09/07 11:13:39;;;;;;;12.82;3.30;;;24.20;99.90;;;;;;5036593;28;20108;-75
2022/09/07 11:16:12;;;;;;;11.65;3.50;;;24.40;99.90;;;;;;5032011;28;20053;-75
2022/09/07 11:18:51;;;;;;;12.00;3.28;;;24.50;99.90;;;;;;5032226;28;20045;-75
2022/09/07 11:21:21;;;;;;;10.18;3.03;;;24.70;99.90;;;;;;5031698;28;20095;-75
2022/09/07 11:24:08;;;;;;;12.93;4.03;;;24.70;99.90;;;;;;5031351;28;20017;-75
2022/09/07 11:26:59;;;;;;;9.32;3.03;;;24.70;99.90;;;;;;5031491;28;20025;-75
2022/09/07 11:29:33;;;;;;;7.75;2.70;;;24.60;99.90;;;;;;5034492;28;20029;-75
2022/09/07 11:32:35;;;;;;;9.70;3.10;;;24.70;99.90;;;;;;5044825;28;20082;-74
2022/09/07 11:35:31;;;;;;;6.25;2.80;;;24.70;99.90;;;;;;5036262;28;20096;-74
2022/09/07 11:38:04;;;;;;;11.20;3.75;;;24.70;99.90;;;;;;5035857;28;20021;-75
2022/09/07 11:40:38;;;;;;;13.00;3.65;;;24.70;99.80;;;;;;5030962;28;20025;-75
2022/09/07 11:43:25;;;;;;;8.03;2.57;;;24.60;99.80;;;;;;5031535;28;20033;-74
2022/09/07 11:46:03;;;;;;;11.65;2.85;;;24.70;99.00;;;;;;5030922;28;20371;-74
2022/09/07 11:48:36;;;;;;;9.60;2.95;;;24.70;99.20;;;;;;5029718;28;20026;-74
2022/09/07 11:51:09;;;;;;;10.38;3.00;;;24.90;99.00;;;;;;5031312;28;20072;-74
2022/09/07 11:53:41;;;;;;;11.68;2.63;;;25.00;98.50;;;;;;5028970;28;20029;-75
2022/09/07 11:56:26;;;;;;;8.63;2.53;;;25.10;97.60;;;;;;5031780;28;20116;-75
2022/09/07 11:59:04;;;;;;;;;;;25.20;97.20;;;;;;5031222;28;20017;-76
2022/09/07 12:01:51;;;;;;;13.32;2.30;;;25.00;96.90;;;;;;5030719;28;19999;-76
2022/09/07 12:04:38;;;;;;;11.82;2.50;;;24.90;97.10;;;;;;5030962;28;20034;-75
2022/09/07 12:07:15;;;;;;;10.50;2.63;;;25.00;96.90;;;;;;5030874;28;20037;-75
2022/09/07 12:10:17;;;;;;;9.82;2.15;;;25.00;96.60;;;;;;5030744;28;20029;-75
2022/09/07 12:13:26;;;;;;;10.52;2.28;;;25.00;96.60;;;;;;5020365;28;20033;-75
2022/09/07 12:16:21;;;;;;;9.75;2.13;;;25.20;95.60;;;;;;5007780;28;20712;-75
2022/09/07 12:19:04;;;;;;;9.07;1.98;;;25.30;94.30;;;;;;4964702;28;20026;-75
2022/09/07 12:21:42;;;;;;;11.07;2.33;;;25.20;93.70;;;;;;5010483;28;20049;-74
2022/09/07 12:24:35;;;;;;;9.80;2.80;;;25.00;94.00;;;;;;5008316;28;20449;-76
2022/09/07 12:27:21;;;;;;;10.02;2.30;;;24.80;94.30;;;;;;5007611;28;20034;-76
2022/09/07 12:29:49;;;;;;;7.95;2.10;;;24.80;94.70;;;;;;5004342;28;20022;-77
2022/09/07 12:32:52;;;;;;;10.07;2.20;;;24.80;95.00;;;;;;4993439;28;20033;-74
2022/09/07 12:35:27;;;;;;;12.48;2.63;;;24.70;94.30;;;;;;5005449;28;20026;-74
2022/09/07 12:37:54;;;;;;;10.75;2.53;;;24.60;94.70;;;;;;5007773;28;20440;-74
2022/09/07 12:40:26;;;;;;;9.57;2.40;;;24.60;95.10;;;;;;5005317;28;20045;-74
2022/09/07 12:43:13;;;;;;;10.88;2.65;;;24.60;95.40;;;;;;5008300;28;20030;-74
2022/09/07 12:45:38;;;;;;;8.00;2.38;;;24.70;95.00;;;;;;5009554;28;20609;-74
2022/09/07 12:48:14;;;;;;;8.85;2.42;;;24.70;94.60;;;;;;5045423;28;20108;-74
2022/09/07 12:50:59;;;;;;;6.60;2.00;;;24.60;94.50;;;;;;5045223;28;20032;-74
2022/09/07 12:53:53;;;;;;;13.87;2.87;;;24.50;94.80;;;;;;5053552;28;20056;-74
2022/09/07 12:56:30;;;;;;;9.23;2.25;;;24.40;95.10;;;;;;5029604;28;20037;-74
2022/09/07 12:59:12;;;;;;;13.32;2.20;;;24.30;95.20;;;;;;5015942;28;20470;-74
2022/09/07 13:01:47;;;;;;;8.73;2.30;;;24.40;95.80;;;;;;5029897;28;20034;-74
2022/09/07 13:04:19;;;;;;;;;;;24.40;95.30;;;;;;5029511;28;20042;-74
2022/09/07 13:06:50;;;;;;;7.90;2.17;;;24.20;95.10;;;;;;5030058;28;19909;-74
2022/09/07 13:09:29;;;;;;;9.75;2.40;;;24.20;95.60;;;;;;5029341;28;20033;-74
2022/09/07 13:11:56;;;;;;;9.68;2.13;;;24.20;96.10;;;;;;5028895;28;20037;-74